Shoyo Maru — JG5356 — position and weather

sailwx.info

Track history (hours):
 
Tides and Currents Weather Stations Pressure Air Temp Water Temp Dewpoint Dewpoint Depression Visibility Wind Speed Wind Dir Waves Ship Positions

Shoyo Maru

Last reported at 2017-Dec-09 15:33 UTC. Time now 2017-Dec-11 02:26 UTC.
Position N 34°06' E 132°43'.

Length 76 m; draft 4 m.

Type: Cargo ship. MMSI: 431100299.

Date/timePositionNaut miles runAvg speedWind from/ knotsBaromVisibWave heightAir tempDewpointWater temp
2017-Dec-09 15:33N 34°06' E 132°43'1 9.9
2017-Dec-09 15:28N 34°05' E 132°43'510.4
2017-Dec-09 15:00N 34°02' E 132°38'710.6
2017-Dec-09 14:22N 33°57' E 132°33'410.7
2017-Dec-09 14:00N 33°55' E 132°29'812.3
2017-Dec-09 13:24N 33°50' E 132°22'812.3
2017-Dec-09 12:44N 33°49' E 132°12'712.1
2017-Dec-09 12:08N 33°46' E 132°05'211.9
2017-Dec-09 12:00N 33°45' E 132°03'812.0
2017-Dec-09 11:21N 33°46' E 131°53'512.3
2017-Dec-09 10:59N 33°47' E 131°48'612.6
2017-Dec-09 10:30N 33°48' E 131°41'612.4
2017-Dec-09 10:00N 33°50' E 131°34'612.8
2017-Dec-09 09:30N 33°51' E 131°26'612.8
2017-Dec-09 09:00N 33°52' E 131°19'612.9
2017-Dec-09 08:30N 33°53' E 131°11'612.4
2017-Dec-09 08:00N 33°57' E 131°05'611.1
2017-Dec-09 07:30N 33°58' E 130°58'4 8.8
2017-Dec-09 07:00N 33°54' E 130°55'4 8.1
2017-Dec-09 06:30N 33°57' E 130°51'611.1
2017-Dec-09 06:00N 33°58' E 130°45'612.2
2017-Dec-09 05:30N 33°57' E 130°38'612.1
2017-Dec-09 05:00N 33°56' E 130°30'612.0
2017-Dec-09 04:30N 33°51' E 130°25'611.9
2017-Dec-09 04:00N 33°48' E 130°20'611.3
2017-Dec-09 03:30N 33°44' E 130°14'611.2
2017-Dec-09 03:00N 33°40' E 130°09'811.2
2017-Dec-09 02:16N 33°37' E 130°01'4 0.1
2017-Dec-07 03:27N 33°35' E 129°56'711.9
2017-Dec-07 02:51N 33°37' E 130°04'412.1
2017-Dec-07 02:29N 33°39' E 130°09'511.0
2017-Dec-07 02:00N 33°39' E 130°15'612.2
2017-Dec-07 01:30N 33°38' E 130°22'2 3.5
2017-Dec-07 00:58N 33°37' E 130°24'0 0.0
2017-Dec-07 00:25N 33°37' E 130°24'0 0.0
2017-Dec-06 23:55N 33°37' E 130°24'0 0.0
2017-Dec-06 23:28N 33°37' E 130°24'0 0.0
2017-Dec-06 22:55N 33°37' E 130°24'0 0.0
2017-Dec-06 22:25N 33°37' E 130°24'0 0.0
2017-Dec-06 21:55N 33°37' E 130°24'0 0.0
2017-Dec-06 21:25N 33°37' E 130°24'0 0.0
2017-Dec-06 20:55N 33°37' E 130°24'  
2017-Dec-04 10:20N 33°46' E 132°00'711.4
2017-Dec-04 09:43N 33°48' E 132°08'311.5
2017-Dec-04 09:29N 33°49' E 132°11'611.8
2017-Dec-04 09:00N 33°50' E 132°18'811.1
2017-Dec-04 08:15N 33°53' E 132°27'1212.3
2017-Dec-04 07:18N 34°03' E 132°34'412.9
2017-Dec-04 07:00N 34°07' E 132°37'7 0.9
2017-Dec-03 23:32N 34°13' E 132°37'0 5.2
2017-Dec-03 23:27N 34°13' E 132°37'1 1.4
2017-Dec-03 22:50N 34°12' E 132°36'0 0.0
2017-Dec-03 22:29N 34°12' E 132°36'0 0.0
2017-Dec-03 21:50N 34°12' E 132°36'0 0.0
2017-Dec-03 21:29N 34°12' E 132°36'0 0.0
2017-Dec-03 20:50N 34°12' E 132°36'0 0.0
2017-Dec-03 20:23N 34°12' E 132°36'0 0.1
2017-Dec-03 19:56N 34°12' E 132°36'0 0.1
2017-Dec-03 19:26N 34°12' E 132°36'0 0.0
2017-Dec-03 18:53N 34°12' E 132°36'0 0.0
2017-Dec-03 18:29N 34°12' E 132°36'0 0.0
2017-Dec-03 17:59N 34°12' E 132°36'0 0.1
2017-Dec-03 17:26N 34°12' E 132°36'0 0.0
2017-Dec-03 16:56N 34°12' E 132°36'0 0.0
2017-Dec-03 16:23N 34°12' E 132°36'0 0.0
2017-Dec-03 15:59N 34°12' E 132°36'0 0.1
2017-Dec-03 15:29N 34°12' E 132°36'0 0.0
2017-Dec-03 14:59N 34°12' E 132°36'1 1.4
2017-Dec-03 14:30N 34°11' E 132°37'9011.5
2017-Dec-03 06:41N 34°22' E 134°25'612.0
2017-Dec-03 06:11N 34°19' E 134°31'212.0
2017-Dec-03 06:00N 34°18' E 134°33'611.5
2017-Dec-03 05:30N 34°15' E 134°39'511.0
2017-Dec-03 05:00N 34°10' E 134°43'510.9
2017-Dec-03 04:31N 34°06' E 134°47'711.4
2017-Dec-03 03:55N 34°01' E 134°52'511.7
2017-Dec-03 03:30N 33°57' E 134°56'611.6
2017-Dec-03 03:00N 33°52' E 135°00'165 9.2
2017-Dec-02 09:01N 34°34' E 138°13'111.5
2017-Dec-02 08:56N 34°34' E 138°14'811.3
2017-Dec-02 08:12N 34°34' E 138°24'211.3
2017-Dec-02 08:00N 34°34' E 138°27'511.1
2017-Dec-02 07:30N 34°34' E 138°33'710.5
2017-Dec-02 06:53N 34°34' E 138°41'610.6
2017-Dec-02 06:17N 34°35' E 138°49'411.4
2017-Dec-02 05:58N 34°35' E 138°53'612.2
2017-Dec-02 05:28N 34°38' E 138°60'612.1
2017-Dec-02 05:00N 34°42' E 139°04'611.5
2017-Dec-02 04:30N 34°47' E 139°08'711.7
2017-Dec-02 03:57N 34°52' E 139°13'611.3
2017-Dec-02 03:26N 34°55' E 139°19'510.1
2017-Dec-02 02:59N 34°57' E 139°24'5 9.6
2017-Dec-02 02:30N 34°59' E 139°29'510.5
2017-Dec-02 02:00N 35°03' E 139°34'611.6
2017-Dec-02 01:31N 35°06' E 139°40'612.4
2017-Dec-02 01:01N 35°11' E 139°45'612.0
2017-Dec-02 00:31N 35°17' E 139°45'611.3
2017-Dec-02 00:01N 35°22' E 139°42'611.2
2017-Dec-01 23:30N 35°27' E 139°43'4 6.6
2017-Dec-01 22:59N 35°31' E 139°44'0 0.1
2017-Dec-01 22:29N 35°31' E 139°44'0 0.0
2017-Dec-01 21:59N 35°31' E 139°44'0 0.1
2017-Dec-01 21:29N 35°31' E 139°44'0 0.1
2017-Dec-01 20:59N 35°31' E 139°44'0 0.0
2017-Dec-01 20:29N 35°31' E 139°44'0 0.0
2017-Dec-01 19:59N 35°31' E 139°44'0 0.0
2017-Dec-01 19:29N 35°31' E 139°44'0 0.1
2017-Dec-01 18:59N 35°31' E 139°44'0 0.1
2017-Dec-01 18:29N 35°31' E 139°44'0 0.1
2017-Dec-01 17:59N 35°31' E 139°44'0 0.1
2017-Dec-01 17:29N 35°31' E 139°44'0 0.0
2017-Dec-01 16:59N 35°31' E 139°44'0 0.1
2017-Dec-01 16:29N 35°31' E 139°44'0 0.0
2017-Dec-01 15:59N 35°31' E 139°44'0 0.0
2017-Dec-01 15:29N 35°31' E 139°44'0 0.0
2017-Dec-01 14:59N 35°31' E 139°44'0 0.0
2017-Dec-01 14:29N 35°31' E 139°44'0 0.0
2017-Dec-01 13:59N 35°31' E 139°44'0 0.1
2017-Dec-01 13:29N 35°31' E 139°44'0 0.0
2017-Dec-01 12:59N 35°31' E 139°44'0 0.1
2017-Dec-01 12:28N 35°31' E 139°44'0 0.1
2017-Dec-01 11:58N 35°31' E 139°44'0 0.0
2017-Dec-01 11:29N 35°31' E 139°44'0 0.0
2017-Dec-01 10:59N 35°31' E 139°44'0 0.0
2017-Dec-01 10:29N 35°31' E 139°44'0 0.1
2017-Dec-01 09:59N 35°31' E 139°44'0 0.1
2017-Dec-01 09:29N 35°31' E 139°44'0 0.1
2017-Dec-01 08:59N 35°31' E 139°44'0 0.1
2017-Dec-01 08:29N 35°31' E 139°44'0 0.1
2017-Dec-01 07:59N 35°31' E 139°44'0 0.1
2017-Dec-01 07:28N 35°31' E 139°44'0 0.0
2017-Dec-01 06:59N 35°31' E 139°44'0 0.0
2017-Dec-01 06:29N 35°31' E 139°44'0 0.1
2017-Dec-01 06:01N 35°31' E 139°44'0 0.1
2017-Dec-01 05:31N 35°31' E 139°44'0 0.1
2017-Dec-01 05:01N 35°31' E 139°44'0 0.1
2017-Dec-01 04:31N 35°31' E 139°44'0 0.0
2017-Dec-01 04:01N 35°31' E 139°44'0 0.0
2017-Dec-01 03:31N 35°31' E 139°44'0 0.0
2017-Dec-01 03:00N 35°31' E 139°44'0 0.1
2017-Dec-01 02:30N 35°31' E 139°44'0 0.1
2017-Dec-01 02:00N 35°31' E 139°44'0 0.1
2017-Dec-01 01:30N 35°31' E 139°44'0 0.0
2017-Dec-01 01:00N 35°31' E 139°44'0 0.0
2017-Dec-01 00:30N 35°31' E 139°44'0 0.1
2017-Dec-01 00:00N 35°31' E 139°44'0 0.1
2017-Nov-30 23:30N 35°31' E 139°44'0 0.1
2017-Nov-30 23:00N 35°31' E 139°44'0 0.1
2017-Nov-30 22:30N 35°31' E 139°44'0 0.0
2017-Nov-30 22:00N 35°31' E 139°44'0 0.0
2017-Nov-30 21:30N 35°31' E 139°44'0 0.1
2017-Nov-30 21:00N 35°31' E 139°44'0 0.1
2017-Nov-30 20:30N 35°31' E 139°44'0 0.1
2017-Nov-30 20:00N 35°31' E 139°44'0 0.1
2017-Nov-30 19:30N 35°31' E 139°44'0 0.0
2017-Nov-30 19:00N 35°31' E 139°44'0 0.0
2017-Nov-30 18:30N 35°31' E 139°44'0 0.0
2017-Nov-30 18:00N 35°31' E 139°44'0 0.1
2017-Nov-30 17:30N 35°31' E 139°44'0 0.1
2017-Nov-30 17:00N 35°31' E 139°44'0 0.0
2017-Nov-30 16:30N 35°31' E 139°44'0 0.1
2017-Nov-30 16:00N 35°31' E 139°44'0 0.0
2017-Nov-30 15:31N 35°31' E 139°44'3 5.6
2017-Nov-30 15:01N 35°30' E 139°47'2 3.9
2017-Nov-30 14:29N 35°30' E 139°50'0 0.0
2017-Nov-30 13:58N 35°30' E 139°50'0 0.0
2017-Nov-30 13:29N 35°30' E 139°50'0 0.0
2017-Nov-30 12:59N 35°30' E 139°50'0 0.0
2017-Nov-30 12:29N 35°30' E 139°50'0 0.0
2017-Nov-30 11:58N 35°30' E 139°50'0 0.1
2017-Nov-30 11:28N 35°30' E 139°50'0 0.0
2017-Nov-30 10:58N 35°30' E 139°50'0 0.0
2017-Nov-30 10:28N 35°30' E 139°50'0 0.0
2017-Nov-30 09:58N 35°30' E 139°50'0 0.0
2017-Nov-30 09:28N 35°30' E 139°50'0 0.0
2017-Nov-30 08:59N 35°30' E 139°50'0 0.0
2017-Nov-30 08:28N 35°30' E 139°50'0 0.0
2017-Nov-30 07:58N 35°30' E 139°50'0 0.0
2017-Nov-30 07:28N 35°30' E 139°50'0 0.0
2017-Nov-30 06:58N 35°30' E 139°50'0 0.0
2017-Nov-30 06:29N 35°30' E 139°50'0 0.0
2017-Nov-30 05:58N 35°30' E 139°50'0 0.1
2017-Nov-30 05:28N 35°30' E 139°50'0 0.0
2017-Nov-30 04:59N 35°30' E 139°50'0 0.0
2017-Nov-30 04:28N 35°30' E 139°50'0 0.0
2017-Nov-30 03:58N 35°30' E 139°50'0 0.0
2017-Nov-30 03:25N 35°30' E 139°50'2 4.7
2017-Nov-30 03:01N 35°31' E 139°52'612.5
2017-Nov-30 02:31N 35°36' E 139°57'  
Track history (hours):
 
Tides and Currents Weather Stations Pressure Air Temp Water Temp Dewpoint Dewpoint Depression Visibility Wind Speed Wind Dir Waves Ship Positions

Shoyo Maru

Last reported at 2017-Dec-09 15:33 UTC. Time now 2017-Dec-11 02:26 UTC.
Position N 34°06' E 132°43'.

Length 76 m; draft 4 m.

Type: Cargo ship. MMSI: 431100299.

Date/timePositionNaut miles runAvg speedWind from/ knotsBaromVisibWave heightAir tempDewpointWater temp
2017-Dec-09 15:33N 34°06' E 132°43'1 9.9
2017-Dec-09 15:28N 34°05' E 132°43'510.4
2017-Dec-09 15:00N 34°02' E 132°38'710.6
2017-Dec-09 14:22N 33°57' E 132°33'410.7
2017-Dec-09 14:00N 33°55' E 132°29'812.3
2017-Dec-09 13:24N 33°50' E 132°22'812.3
2017-Dec-09 12:44N 33°49' E 132°12'712.1
2017-Dec-09 12:08N 33°46' E 132°05'211.9
2017-Dec-09 12:00N 33°45' E 132°03'812.0
2017-Dec-09 11:21N 33°46' E 131°53'512.3
2017-Dec-09 10:59N 33°47' E 131°48'612.6
2017-Dec-09 10:30N 33°48' E 131°41'612.4
2017-Dec-09 10:00N 33°50' E 131°34'612.8
2017-Dec-09 09:30N 33°51' E 131°26'612.8
2017-Dec-09 09:00N 33°52' E 131°19'612.9
2017-Dec-09 08:30N 33°53' E 131°11'612.4
2017-Dec-09 08:00N 33°57' E 131°05'611.1
2017-Dec-09 07:30N 33°58' E 130°58'4 8.8
2017-Dec-09 07:00N 33°54' E 130°55'4 8.1
2017-Dec-09 06:30N 33°57' E 130°51'611.1
2017-Dec-09 06:00N 33°58' E 130°45'612.2
2017-Dec-09 05:30N 33°57' E 130°38'612.1
2017-Dec-09 05:00N 33°56' E 130°30'612.0
2017-Dec-09 04:30N 33°51' E 130°25'611.9
2017-Dec-09 04:00N 33°48' E 130°20'611.3
2017-Dec-09 03:30N 33°44' E 130°14'611.2
2017-Dec-09 03:00N 33°40' E 130°09'811.2
2017-Dec-09 02:16N 33°37' E 130°01'4 0.1
2017-Dec-07 03:27N 33°35' E 129°56'711.9
2017-Dec-07 02:51N 33°37' E 130°04'412.1
2017-Dec-07 02:29N 33°39' E 130°09'511.0
2017-Dec-07 02:00N 33°39' E 130°15'612.2
2017-Dec-07 01:30N 33°38' E 130°22'2 3.5
2017-Dec-07 00:58N 33°37' E 130°24'0 0.0
2017-Dec-07 00:25N 33°37' E 130°24'0 0.0
2017-Dec-06 23:55N 33°37' E 130°24'0 0.0
2017-Dec-06 23:28N 33°37' E 130°24'0 0.0
2017-Dec-06 22:55N 33°37' E 130°24'0 0.0
2017-Dec-06 22:25N 33°37' E 130°24'0 0.0
2017-Dec-06 21:55N 33°37' E 130°24'0 0.0
2017-Dec-06 21:25N 33°37' E 130°24'0 0.0
2017-Dec-06 20:55N 33°37' E 130°24'  
2017-Dec-04 10:20N 33°46' E 132°00'711.4
2017-Dec-04 09:43N 33°48' E 132°08'311.5
2017-Dec-04 09:29N 33°49' E 132°11'611.8
2017-Dec-04 09:00N 33°50' E 132°18'811.1
2017-Dec-04 08:15N 33°53' E 132°27'1212.3
2017-Dec-04 07:18N 34°03' E 132°34'412.9
2017-Dec-04 07:00N 34°07' E 132°37'7 0.9
2017-Dec-03 23:32N 34°13' E 132°37'0 5.2
2017-Dec-03 23:27N 34°13' E 132°37'1 1.4
2017-Dec-03 22:50N 34°12' E 132°36'0 0.0
2017-Dec-03 22:29N 34°12' E 132°36'0 0.0
2017-Dec-03 21:50N 34°12' E 132°36'0 0.0
2017-Dec-03 21:29N 34°12' E 132°36'0 0.0
2017-Dec-03 20:50N 34°12' E 132°36'0 0.0
2017-Dec-03 20:23N 34°12' E 132°36'0 0.1
2017-Dec-03 19:56N 34°12' E 132°36'0 0.1
2017-Dec-03 19:26N 34°12' E 132°36'0 0.0
2017-Dec-03 18:53N 34°12' E 132°36'0 0.0
2017-Dec-03 18:29N 34°12' E 132°36'0 0.0
2017-Dec-03 17:59N 34°12' E 132°36'0 0.1
2017-Dec-03 17:26N 34°12' E 132°36'0 0.0
2017-Dec-03 16:56N 34°12' E 132°36'0 0.0
2017-Dec-03 16:23N 34°12' E 132°36'0 0.0
2017-Dec-03 15:59N 34°12' E 132°36'0 0.1
2017-Dec-03 15:29N 34°12' E 132°36'0 0.0
2017-Dec-03 14:59N 34°12' E 132°36'1 1.4
2017-Dec-03 14:30N 34°11' E 132°37'9011.5
2017-Dec-03 06:41N 34°22' E 134°25'612.0
2017-Dec-03 06:11N 34°19' E 134°31'212.0
2017-Dec-03 06:00N 34°18' E 134°33'611.5
2017-Dec-03 05:30N 34°15' E 134°39'511.0
2017-Dec-03 05:00N 34°10' E 134°43'510.9
2017-Dec-03 04:31N 34°06' E 134°47'711.4
2017-Dec-03 03:55N 34°01' E 134°52'511.7
2017-Dec-03 03:30N 33°57' E 134°56'611.6
2017-Dec-03 03:00N 33°52' E 135°00'165 9.2
2017-Dec-02 09:01N 34°34' E 138°13'111.5
2017-Dec-02 08:56N 34°34' E 138°14'811.3
2017-Dec-02 08:12N 34°34' E 138°24'211.3
2017-Dec-02 08:00N 34°34' E 138°27'511.1
2017-Dec-02 07:30N 34°34' E 138°33'710.5
2017-Dec-02 06:53N 34°34' E 138°41'610.6
2017-Dec-02 06:17N 34°35' E 138°49'411.4
2017-Dec-02 05:58N 34°35' E 138°53'612.2
2017-Dec-02 05:28N 34°38' E 138°60'612.1
2017-Dec-02 05:00N 34°42' E 139°04'611.5
2017-Dec-02 04:30N 34°47' E 139°08'711.7
2017-Dec-02 03:57N 34°52' E 139°13'611.3
2017-Dec-02 03:26N 34°55' E 139°19'510.1
2017-Dec-02 02:59N 34°57' E 139°24'5 9.6
2017-Dec-02 02:30N 34°59' E 139°29'510.5
2017-Dec-02 02:00N 35°03' E 139°34'611.6
2017-Dec-02 01:31N 35°06' E 139°40'612.4
2017-Dec-02 01:01N 35°11' E 139°45'612.0
2017-Dec-02 00:31N 35°17' E 139°45'611.3
2017-Dec-02 00:01N 35°22' E 139°42'611.2
2017-Dec-01 23:30N 35°27' E 139°43'4 6.6
2017-Dec-01 22:59N 35°31' E 139°44'0 0.1
2017-Dec-01 22:29N 35°31' E 139°44'0 0.0
2017-Dec-01 21:59N 35°31' E 139°44'0 0.1
2017-Dec-01 21:29N 35°31' E 139°44'0 0.1
2017-Dec-01 20:59N 35°31' E 139°44'0 0.0
2017-Dec-01 20:29N 35°31' E 139°44'0 0.0
2017-Dec-01 19:59N 35°31' E 139°44'0 0.0
2017-Dec-01 19:29N 35°31' E 139°44'0 0.1
2017-Dec-01 18:59N 35°31' E 139°44'0 0.1
2017-Dec-01 18:29N 35°31' E 139°44'0 0.1
2017-Dec-01 17:59N 35°31' E 139°44'0 0.1
2017-Dec-01 17:29N 35°31' E 139°44'0 0.0
2017-Dec-01 16:59N 35°31' E 139°44'0 0.1
2017-Dec-01 16:29N 35°31' E 139°44'0 0.0
2017-Dec-01 15:59N 35°31' E 139°44'0 0.0
2017-Dec-01 15:29N 35°31' E 139°44'0 0.0
2017-Dec-01 14:59N 35°31' E 139°44'0 0.0
2017-Dec-01 14:29N 35°31' E 139°44'0 0.0
2017-Dec-01 13:59N 35°31' E 139°44'0 0.1
2017-Dec-01 13:29N 35°31' E 139°44'0 0.0
2017-Dec-01 12:59N 35°31' E 139°44'0 0.1
2017-Dec-01 12:28N 35°31' E 139°44'0 0.1
2017-Dec-01 11:58N 35°31' E 139°44'0 0.0
2017-Dec-01 11:29N 35°31' E 139°44'0 0.0
2017-Dec-01 10:59N 35°31' E 139°44'0 0.0
2017-Dec-01 10:29N 35°31' E 139°44'0 0.1
2017-Dec-01 09:59N 35°31' E 139°44'0 0.1
2017-Dec-01 09:29N 35°31' E 139°44'0 0.1
2017-Dec-01 08:59N 35°31' E 139°44'0 0.1
2017-Dec-01 08:29N 35°31' E 139°44'0 0.1
2017-Dec-01 07:59N 35°31' E 139°44'0 0.1
2017-Dec-01 07:28N 35°31' E 139°44'0 0.0
2017-Dec-01 06:59N 35°31' E 139°44'0 0.0
2017-Dec-01 06:29N 35°31' E 139°44'0 0.1
2017-Dec-01 06:01N 35°31' E 139°44'0 0.1
2017-Dec-01 05:31N 35°31' E 139°44'0 0.1
2017-Dec-01 05:01N 35°31' E 139°44'0 0.1
2017-Dec-01 04:31N 35°31' E 139°44'0 0.0
2017-Dec-01 04:01N 35°31' E 139°44'0 0.0
2017-Dec-01 03:31N 35°31' E 139°44'0 0.0
2017-Dec-01 03:00N 35°31' E 139°44'0 0.1
2017-Dec-01 02:30N 35°31' E 139°44'0 0.1
2017-Dec-01 02:00N 35°31' E 139°44'0 0.1
2017-Dec-01 01:30N 35°31' E 139°44'0 0.0
2017-Dec-01 01:00N 35°31' E 139°44'0 0.0
2017-Dec-01 00:30N 35°31' E 139°44'0 0.1
2017-Dec-01 00:00N 35°31' E 139°44'0 0.1
2017-Nov-30 23:30N 35°31' E 139°44'0 0.1
2017-Nov-30 23:00N 35°31' E 139°44'0 0.1
2017-Nov-30 22:30N 35°31' E 139°44'0 0.0
2017-Nov-30 22:00N 35°31' E 139°44'0 0.0
2017-Nov-30 21:30N 35°31' E 139°44'0 0.1
2017-Nov-30 21:00N 35°31' E 139°44'0 0.1
2017-Nov-30 20:30N 35°31' E 139°44'0 0.1
2017-Nov-30 20:00N 35°31' E 139°44'0 0.1
2017-Nov-30 19:30N 35°31' E 139°44'0 0.0
2017-Nov-30 19:00N 35°31' E 139°44'0 0.0
2017-Nov-30 18:30N 35°31' E 139°44'0 0.0
2017-Nov-30 18:00N 35°31' E 139°44'0 0.1
2017-Nov-30 17:30N 35°31' E 139°44'0 0.1
2017-Nov-30 17:00N 35°31' E 139°44'0 0.0
2017-Nov-30 16:30N 35°31' E 139°44'0 0.1
2017-Nov-30 16:00N 35°31' E 139°44'0 0.0
2017-Nov-30 15:31N 35°31' E 139°44'3 5.6
2017-Nov-30 15:01N 35°30' E 139°47'2 3.9
2017-Nov-30 14:29N 35°30' E 139°50'0 0.0
2017-Nov-30 13:58N 35°30' E 139°50'0 0.0
2017-Nov-30 13:29N 35°30' E 139°50'0 0.0
2017-Nov-30 12:59N 35°30' E 139°50'0 0.0
2017-Nov-30 12:29N 35°30' E 139°50'0 0.0
2017-Nov-30 11:58N 35°30' E 139°50'0 0.1
2017-Nov-30 11:28N 35°30' E 139°50'0 0.0
2017-Nov-30 10:58N 35°30' E 139°50'0 0.0
2017-Nov-30 10:28N 35°30' E 139°50'0 0.0
2017-Nov-30 09:58N 35°30' E 139°50'0 0.0
2017-Nov-30 09:28N 35°30' E 139°50'0 0.0
2017-Nov-30 08:59N 35°30' E 139°50'0 0.0
2017-Nov-30 08:28N 35°30' E 139°50'0 0.0
2017-Nov-30 07:58N 35°30' E 139°50'0 0.0
2017-Nov-30 07:28N 35°30' E 139°50'0 0.0
2017-Nov-30 06:58N 35°30' E 139°50'0 0.0
2017-Nov-30 06:29N 35°30' E 139°50'0 0.0
2017-Nov-30 05:58N 35°30' E 139°50'0 0.1
2017-Nov-30 05:28N 35°30' E 139°50'0 0.0
2017-Nov-30 04:59N 35°30' E 139°50'0 0.0
2017-Nov-30 04:28N 35°30' E 139°50'0 0.0
2017-Nov-30 03:58N 35°30' E 139°50'0 0.0
2017-Nov-30 03:25N 35°30' E 139°50'2 4.7
2017-Nov-30 03:01N 35°31' E 139°52'612.5
2017-Nov-30 02:31N 35°36' E 139°57'  

Dump ship's entire track history